Droylsden, United Kingdom
Current Conditions -  °F | °C
As of 7:50 AM on Thursday 27 Nov 2014 (Local Time) from EGCC Reporting Station
Drizzle Drizzle  
Wind Chill: 43°   Ceiling: 1300
Heat Index: 43°   Visibility: 0.87mi
Dew Point: 43°   Wind: 0mph
Humidity: 100%   Direction: NA
Pressure: 29.62"   Gusts: NA
Location:  53.48°N, 2.15°W
Report Text: EGCC 270750Z 00000KT 1400 R05R/P1500 R05L/1300 -DZ BR SCT008 BKN013 06/06 Q1003 TEMPO 1500 BKN008
Loading
Personal Weather Stations






























Interactive Weather Map New forecast layout! Learn more

10-Day Weather Forecast

Advertisements
Track Severe Weather on mobile